sensor_id;sensor_type;location;lat;lon;timestamp;pressure;altitude;pressure_sealevel;temperature;humidity
77583;BME280;66726;52.388;9.986;2024-02-26T00:00:00;99543.44;;;3.22;85.15
77583;BME280;66726;52.388;9.986;2024-02-26T00:02:28;99536.91;;;3.26;84.87
77583;BME280;66726;52.388;9.986;2024-02-26T00:04:58;99540.53;;;3.25;83.54
77583;BME280;66726;52.388;9.986;2024-02-26T00:07:26;99537.19;;;3.23;83.51
77583;BME280;66726;52.388;9.986;2024-02-26T00:09:55;99529.41;;;3.22;82.95
77583;BME280;66726;52.388;9.986;2024-02-26T00:12:24;99534.97;;;3.19;83.18
77583;BME280;66726;52.388;9.986;2024-02-26T00:14:52;99537.59;;;3.19;83.69
77583;BME280;66726;52.388;9.986;2024-02-26T00:17:20;99538.34;;;3.11;83.56
77583;BME280;66726;52.388;9.986;2024-02-26T00:19:48;99534.69;;;3.12;83.55
77583;BME280;66726;52.388;9.986;2024-02-26T00:22:16;99521.09;;;3.07;83.26
77583;BME280;66726;52.388;9.986;2024-02-26T00:24:45;99523.00;;;3.05;83.82
77583;BME280;66726;52.388;9.986;2024-02-26T00:27:14;99517.47;;;2.98;84.57
77583;BME280;66726;52.388;9.986;2024-02-26T00:29:42;99512.19;;;2.98;84.77
77583;BME280;66726;52.388;9.986;2024-02-26T00:32:11;99517.19;;;2.92;85.98
77583;BME280;66726;52.388;9.986;2024-02-26T00:34:39;99513.44;;;2.85;86.92
77583;BME280;66726;52.388;9.986;2024-02-26T00:37:07;99516.94;;;2.85;86.39
77583;BME280;66726;52.388;9.986;2024-02-26T00:39:35;99518.06;;;2.83;86.79
77583;BME280;66726;52.388;9.986;2024-02-26T00:42:03;99516.38;;;2.82;87.27
77583;BME280;66726;52.388;9.986;2024-02-26T00:44:33;99519.44;;;2.87;86.19
77583;BME280;66726;52.388;9.986;2024-02-26T00:47:01;99515.81;;;2.88;86.11
77583;BME280;66726;52.388;9.986;2024-02-26T00:49:29;99512.09;;;2.81;85.96
77583;BME280;66726;52.388;9.986;2024-02-26T00:51:58;99510.25;;;2.81;85.53
77583;BME280;66726;52.388;9.986;2024-02-26T00:54:26;99507.50;;;2.83;84.58
77583;BME280;66726;52.388;9.986;2024-02-26T00:56:54;99516.94;;;2.76;85.33
77583;BME280;66726;52.388;9.986;2024-02-26T00:59:22;99514.56;;;2.82;85.42
77583;BME280;66726;52.388;9.986;2024-02-26T01:01:52;99519.88;;;2.73;85.28
77583;BME280;66726;52.388;9.986;2024-02-26T01:04:20;99519.44;;;2.68;84.87
77583;BME280;66726;52.388;9.986;2024-02-26T01:06:48;99508.03;;;2.67;86.09
77583;BME280;66726;52.388;9.986;2024-02-26T01:09:16;99520.72;;;2.64;86.38
77583;BME280;66726;52.388;9.986;2024-02-26T01:11:45;99512.22;;;2.50;86.88
77583;BME280;66726;52.388;9.986;2024-02-26T01:14:13;99516.13;;;2.56;86.66
77583;BME280;66726;52.388;9.986;2024-02-26T01:16:42;99508.63;;;2.51;86.49
77583;BME280;66726;52.388;9.986;2024-02-26T01:19:11;99517.22;;;2.53;87.77
77583;BME280;66726;52.388;9.986;2024-02-26T01:21:40;99521.41;;;2.56;87.44
77583;BME280;66726;52.388;9.986;2024-02-26T01:24:08;99514.47;;;2.55;87.00
77583;BME280;66726;52.388;9.986;2024-02-26T01:26:36;99516.81;;;2.58;87.08
77583;BME280;66726;52.388;9.986;2024-02-26T01:29:04;99511.53;;;2.48;88.37
77583;BME280;66726;52.388;9.986;2024-02-26T01:31:32;99512.78;;;2.44;89.10
77583;BME280;66726;52.388;9.986;2024-02-26T01:34:01;99523.06;;;2.47;88.63
77583;BME280;66726;52.388;9.986;2024-02-26T01:36:30;99524.19;;;2.45;89.18
77583;BME280;66726;52.388;9.986;2024-02-26T01:38:59;99525.88;;;2.46;89.14
77583;BME280;66726;52.388;9.986;2024-02-26T01:41:27;99517.94;;;2.46;89.86
77583;BME280;66726;52.388;9.986;2024-02-26T01:43:55;99519.19;;;2.51;88.72
77583;BME280;66726;52.388;9.986;2024-02-26T01:46:23;99524.47;;;2.51;89.02
77583;BME280;66726;52.388;9.986;2024-02-26T01:48:51;99520.84;;;2.52;88.85
77583;BME280;66726;52.388;9.986;2024-02-26T01:51:20;99512.94;;;2.43;88.20
77583;BME280;66726;52.388;9.986;2024-02-26T01:53:50;99506.66;;;2.44;89.80
77583;BME280;66726;52.388;9.986;2024-02-26T01:56:19;99514.59;;;2.44;88.79
77583;BME280;66726;52.388;9.986;2024-02-26T01:58:49;99509.19;;;2.45;89.38
77583;BME280;66726;52.388;9.986;2024-02-26T02:01:21;99513.63;;;2.45;89.20
77583;BME280;66726;52.388;9.986;2024-02-26T02:03:51;99515.28;;;2.36;89.24
77583;BME280;66726;52.388;9.986;2024-02-26T02:06:20;99518.34;;;2.41;89.22
77583;BME280;66726;52.388;9.986;2024-02-26T02:08:50;99523.06;;;2.38;89.42
77583;BME280;66726;52.388;9.986;2024-02-26T02:11:19;99526.13;;;2.33;89.05
77583;BME280;66726;52.388;9.986;2024-02-26T02:13:47;99528.34;;;2.28;89.23
77583;BME280;66726;52.388;9.986;2024-02-26T02:16:15;99522.38;;;2.36;89.28
77583;BME280;66726;52.388;9.986;2024-02-26T02:18:43;99523.63;;;2.32;89.55
77583;BME280;66726;52.388;9.986;2024-02-26T02:21:13;99521.09;;;2.30;90.40
77583;BME280;66726;52.388;9.986;2024-02-26T02:23:41;99523.47;;;2.33;90.00
77583;BME280;66726;52.388;9.986;2024-02-26T02:26:14;99527.63;;;2.26;90.12
77583;BME280;66726;52.388;9.986;2024-02-26T02:28:43;99520.00;;;2.23;90.26
77583;BME280;66726;52.388;9.986;2024-02-26T02:31:11;99529.47;;;2.26;91.14
77583;BME280;66726;52.388;9.986;2024-02-26T02:33:40;99524.75;;;2.29;90.78
77583;BME280;66726;52.388;9.986;2024-02-26T02:36:09;99519.47;;;2.29;91.19
77583;BME280;66726;52.388;9.986;2024-02-26T02:38:49;99533.06;;;2.34;90.54
77583;BME280;66726;52.388;9.986;2024-02-26T02:41:18;99521.81;;;2.32;90.63
77583;BME280;66726;52.388;9.986;2024-02-26T02:43:46;99523.34;;;2.35;90.85
77583;BME280;66726;52.388;9.986;2024-02-26T02:46:15;99520.72;;;2.25;91.18
77583;BME280;66726;52.388;9.986;2024-02-26T02:48:43;99519.47;;;2.29;90.57
77583;BME280;66726;52.388;9.986;2024-02-26T02:51:11;99525.00;;;2.26;91.09
77583;BME280;66726;52.388;9.986;2024-02-26T02:53:41;99527.91;;;2.23;90.54
77583;BME280;66726;52.388;9.986;2024-02-26T02:56:09;99529.31;;;2.27;90.41
77583;BME280;66726;52.388;9.986;2024-02-26T02:58:37;99526.66;;;2.27;90.50
77583;BME280;66726;52.388;9.986;2024-02-26T03:01:05;99533.91;;;2.25;90.83
77583;BME280;66726;52.388;9.986;2024-02-26T03:03:33;99535.28;;;2.20;90.95
77583;BME280;66726;52.388;9.986;2024-02-26T03:06:03;99531.53;;;2.22;91.51
77583;BME280;66726;52.388;9.986;2024-02-26T03:08:32;99530.56;;;2.23;90.79
77583;BME280;66726;52.388;9.986;2024-02-26T03:11:05;99536.94;;;2.21;89.84
77583;BME280;66726;52.388;9.986;2024-02-26T03:13:33;99539.19;;;2.16;90.29
77583;BME280;66726;52.388;9.986;2024-02-26T03:16:05;99545.53;;;2.13;91.25
77583;BME280;66726;52.388;9.986;2024-02-26T03:18:33;99540.97;;;2.15;91.05
77583;BME280;66726;52.388;9.986;2024-02-26T03:21:02;99545.28;;;2.16;91.08
77583;BME280;66726;52.388;9.986;2024-02-26T03:23:30;99538.63;;;2.12;91.54
77583;BME280;66726;52.388;9.986;2024-02-26T03:26:04;99538.88;;;2.09;91.95
77583;BME280;66726;52.388;9.986;2024-02-26T03:28:32;99542.91;;;2.13;91.08
77583;BME280;66726;52.388;9.986;2024-02-26T03:31:01;99543.63;;;2.15;90.89
77583;BME280;66726;52.388;9.986;2024-02-26T03:33:30;99547.47;;;2.01;90.97
77583;BME280;66726;52.388;9.986;2024-02-26T03:35:58;99547.88;;;1.97;91.40
77583;BME280;66726;52.388;9.986;2024-02-26T03:38:26;99557.75;;;1.95;92.61
77583;BME280;66726;52.388;9.986;2024-02-26T03:40:54;99552.47;;;1.95;92.89
77583;BME280;66726;52.388;9.986;2024-02-26T03:43:24;99550.50;;;1.97;93.03
77583;BME280;66726;52.388;9.986;2024-02-26T03:45:52;99545.22;;;1.97;93.38
77583;BME280;66726;52.388;9.986;2024-02-26T03:48:20;99549.09;;;1.93;93.19
77583;BME280;66726;52.388;9.986;2024-02-26T03:50:49;99547.44;;;1.92;94.05
77583;BME280;66726;52.388;9.986;2024-02-26T03:53:17;99545.78;;;1.91;93.96
77583;BME280;66726;52.388;9.986;2024-02-26T03:55:45;99545.63;;;1.92;93.88
77583;BME280;66726;52.388;9.986;2024-02-26T03:58:13;99545.63;;;1.92;93.78
77583;BME280;66726;52.388;9.986;2024-02-26T04:00:44;99540.22;;;1.94;93.82
77583;BME280;66726;52.388;9.986;2024-02-26T04:03:14;99546.47;;;1.93;93.30
77583;BME280;66726;52.388;9.986;2024-02-26T04:05:42;99542.16;;;1.92;93.93
77583;BME280;66726;52.388;9.986;2024-02-26T04:08:11;99550.78;;;1.94;93.64
77583;BME280;66726;52.388;9.986;2024-02-26T04:10:39;99546.47;;;1.93;93.69
77583;BME280;66726;52.388;9.986;2024-02-26T04:13:08;99545.34;;;1.86;93.21
77583;BME280;66726;52.388;9.986;2024-02-26T04:15:36;99560.06;;;1.88;93.76
77583;BME280;66726;52.388;9.986;2024-02-26T04:18:05;99558.25;;;1.89;93.85
77583;BME280;66726;52.388;9.986;2024-02-26T04:20:34;99550.63;;;1.86;93.72
77583;BME280;66726;52.388;9.986;2024-02-26T04:23:03;99548.81;;;1.86;94.27
77583;BME280;66726;52.388;9.986;2024-02-26T04:25:31;99556.03;;;1.84;93.86
77583;BME280;66726;52.388;9.986;2024-02-26T04:27:59;99555.19;;;1.84;94.00
77583;BME280;66726;52.388;9.986;2024-02-26T04:30:27;99563.13;;;1.84;94.30
77583;BME280;66726;52.388;9.986;2024-02-26T04:32:55;99562.16;;;1.85;94.57
77583;BME280;66726;52.388;9.986;2024-02-26T04:35:25;99566.72;;;1.83;94.45
77583;BME280;66726;52.388;9.986;2024-02-26T04:37:53;99566.31;;;1.87;94.36
77583;BME280;66726;52.388;9.986;2024-02-26T04:40:21;99568.97;;;1.87;94.32
77583;BME280;66726;52.388;9.986;2024-02-26T04:42:49;99575.47;;;1.83;94.93
77583;BME280;66726;52.388;9.986;2024-02-26T04:45:18;99572.00;;;1.83;95.01
77583;BME280;66726;52.388;9.986;2024-02-26T04:47:46;99574.63;;;1.83;94.90
77583;BME280;66726;52.388;9.986;2024-02-26T04:50:15;99574.91;;;1.80;95.09
77583;BME280;66726;52.388;9.986;2024-02-26T04:52:44;99579.34;;;1.79;95.89
77583;BME280;66726;52.388;9.986;2024-02-26T04:55:12;99590.03;;;1.78;95.96
77583;BME280;66726;52.388;9.986;2024-02-26T04:57:41;99586.56;;;1.77;95.75
77583;BME280;66726;52.388;9.986;2024-02-26T05:00:11;99584.03;;;1.76;96.06
77583;BME280;66726;52.388;9.986;2024-02-26T05:02:39;99585.72;;;1.77;96.22
77583;BME280;66726;52.388;9.986;2024-02-26T05:05:08;99593.19;;;1.72;96.30
77583;BME280;66726;52.388;9.986;2024-02-26T05:07:40;99591.81;;;1.68;97.04
77583;BME280;66726;52.388;9.986;2024-02-26T05:10:10;99596.81;;;1.71;97.24
77583;BME280;66726;52.388;9.986;2024-02-26T05:12:38;99594.19;;;1.71;96.55
77583;BME280;66726;52.388;9.986;2024-02-26T05:15:09;99599.19;;;1.74;96.64
77583;BME280;66726;52.388;9.986;2024-02-26T05:17:38;99606.38;;;1.72;97.14
77583;BME280;66726;52.388;9.986;2024-02-26T05:20:07;99605.16;;;1.76;97.27
77583;BME280;66726;52.388;9.986;2024-02-26T05:22:37;99608.53;;;1.78;97.20
77583;BME280;66726;52.388;9.986;2024-02-26T05:25:05;99601.41;;;1.78;96.34
77583;BME280;66726;52.388;9.986;2024-02-26T05:27:35;99608.38;;;1.79;96.61
77583;BME280;66726;52.388;9.986;2024-02-26T05:30:04;99602.25;;;1.79;96.66
77583;BME280;66726;52.388;9.986;2024-02-26T05:32:32;99610.69;;;1.73;97.16
77583;BME280;66726;52.388;9.986;2024-02-26T05:35:01;99613.22;;;1.74;97.04
77583;BME280;66726;52.388;9.986;2024-02-26T05:37:30;99613.22;;;1.74;97.11
77583;BME280;66726;52.388;9.986;2024-02-26T05:39:59;99616.66;;;1.75;97.39
77583;BME280;66726;52.388;9.986;2024-02-26T05:42:27;99613.34;;;1.73;96.64
77583;BME280;66726;52.388;9.986;2024-02-26T05:44:56;99620.41;;;1.72;97.18
77583;BME280;66726;52.388;9.986;2024-02-26T05:47:25;99612.66;;;1.71;98.00
77583;BME280;66726;52.388;9.986;2024-02-26T05:49:53;99613.34;;;1.73;97.74
77583;BME280;66726;52.388;9.986;2024-02-26T05:52:22;99611.41;;;1.75;97.60
77583;BME280;66726;52.388;9.986;2024-02-26T05:54:52;99621.72;;;1.78;97.24
77583;BME280;66726;52.388;9.986;2024-02-26T05:57:21;99613.66;;;1.79;97.59
77583;BME280;66726;52.388;9.986;2024-02-26T05:59:51;99629.38;;;1.81;96.82
77583;BME280;66726;52.388;9.986;2024-02-26T06:02:20;99624.78;;;1.83;97.78
77583;BME280;66726;52.388;9.986;2024-02-26T06:04:48;99631.72;;;1.84;97.08
77583;BME280;66726;52.388;9.986;2024-02-26T06:07:16;99636.06;;;1.85;97.40
77583;BME280;66726;52.388;9.986;2024-02-26T06:09:44;99633.25;;;1.86;97.15
77583;BME280;66726;52.388;9.986;2024-02-26T06:12:12;99637.69;;;1.86;97.35
77583;BME280;66726;52.388;9.986;2024-02-26T06:14:42;99639.38;;;1.87;97.26
77583;BME280;66726;52.388;9.986;2024-02-26T06:17:10;99641.88;;;1.88;97.72
77583;BME280;66726;52.388;9.986;2024-02-26T06:19:39;99642.72;;;1.89;97.08
77583;BME280;66726;52.388;9.986;2024-02-26T06:22:08;99642.72;;;1.89;97.78
77583;BME280;66726;52.388;9.986;2024-02-26T06:24:36;99642.72;;;1.89;97.92
77583;BME280;66726;52.388;9.986;2024-02-26T06:27:04;99646.91;;;1.91;97.49
77583;BME280;66726;52.388;9.986;2024-02-26T06:29:32;99651.34;;;1.91;97.81
77583;BME280;66726;52.388;9.986;2024-02-26T06:32:01;99652.19;;;1.91;97.63
77583;BME280;66726;52.388;9.986;2024-02-26T06:34:29;99653.00;;;1.92;97.79
77583;BME280;66726;52.388;9.986;2024-02-26T06:36:58;99645.81;;;1.94;97.39
77583;BME280;66726;52.388;9.986;2024-02-26T06:39:26;99653.00;;;1.92;97.64
77583;BME280;66726;52.388;9.986;2024-02-26T06:41:55;99661.91;;;1.91;97.78
77583;BME280;66726;52.388;9.986;2024-02-26T06:44:28;99668.03;;;1.91;97.85
77583;BME280;66726;52.388;9.986;2024-02-26T06:46:59;99676.63;;;1.93;98.51
77583;BME280;66726;52.388;9.986;2024-02-26T06:49:27;99669.56;;;1.94;97.71
77583;BME280;66726;52.388;9.986;2024-02-26T06:51:57;99673.03;;;1.94;98.12
77583;BME280;66726;52.388;9.986;2024-02-26T06:54:26;99676.53;;;1.95;98.63
77583;BME280;66726;52.388;9.986;2024-02-26T06:56:54;99681.66;;;1.96;98.09
77583;BME280;66726;52.388;9.986;2024-02-26T06:59:22;99684.28;;;1.96;98.50
77583;BME280;66726;52.388;9.986;2024-02-26T07:01:51;99692.78;;;2.00;97.91
77583;BME280;66726;52.388;9.986;2024-02-26T07:04:19;99692.78;;;2.00;98.15
77583;BME280;66726;52.388;9.986;2024-02-26T07:06:48;99699.75;;;2.01;97.78
77583;BME280;66726;52.388;9.986;2024-02-26T07:09:17;99696.97;;;2.02;98.50
77583;BME280;66726;52.388;9.986;2024-02-26T07:11:46;99703.06;;;2.03;98.50
77583;BME280;66726;52.388;9.986;2024-02-26T07:14:14;99703.66;;;2.07;98.32
77583;BME280;66726;52.388;9.986;2024-02-26T07:16:42;99703.53;;;2.08;98.43
77583;BME280;66726;52.388;9.986;2024-02-26T07:19:10;99714.78;;;2.10;98.35
77583;BME280;66726;52.388;9.986;2024-02-26T07:21:38;99718.16;;;2.12;97.87
77583;BME280;66726;52.388;9.986;2024-02-26T07:24:08;99719.69;;;2.15;98.06
77583;BME280;66726;52.388;9.986;2024-02-26T07:26:37;99727.34;;;2.18;98.22
77583;BME280;66726;52.388;9.986;2024-02-26T07:29:06;99731.50;;;2.20;98.12
77583;BME280;66726;52.388;9.986;2024-02-26T07:31:34;99731.41;;;2.22;98.38
77583;BME280;66726;52.388;9.986;2024-02-26T07:34:02;99727.66;;;2.24;98.36
77583;BME280;66726;52.388;9.986;2024-02-26T07:36:30;99730.16;;;2.26;98.06
77583;BME280;66726;52.388;9.986;2024-02-26T07:38:58;99727.38;;;2.27;98.00
77583;BME280;66726;52.388;9.986;2024-02-26T07:41:28;99735.03;;;2.30;97.86
77583;BME280;66726;52.388;9.986;2024-02-26T07:43:57;99725.31;;;2.31;97.52
77583;BME280;66726;52.388;9.986;2024-02-26T07:46:26;99733.81;;;2.34;98.32
77583;BME280;66726;52.388;9.986;2024-02-26T07:48:54;99729.34;;;2.35;97.41
77583;BME280;66726;52.388;9.986;2024-02-26T07:51:22;99730.91;;;2.37;97.73
77583;BME280;66726;52.388;9.986;2024-02-26T07:53:50;99729.94;;;2.38;97.70
77583;BME280;66726;52.388;9.986;2024-02-26T07:56:19;99729.66;;;2.41;97.71
77583;BME280;66726;52.388;9.986;2024-02-26T07:58:48;99732.31;;;2.41;97.82
77583;BME280;66726;52.388;9.986;2024-02-26T08:01:17;99728.56;;;2.44;97.78
77583;BME280;66726;52.388;9.986;2024-02-26T08:03:45;99734.56;;;2.46;97.88
77583;BME280;66726;52.388;9.986;2024-02-26T08:06:14;99732.75;;;2.46;96.69
77583;BME280;66726;52.388;9.986;2024-02-26T08:08:42;99736.94;;;2.49;97.15
77583;BME280;66726;52.388;9.986;2024-02-26T08:11:10;99731.50;;;2.50;97.63
77583;BME280;66726;52.388;9.986;2024-02-26T08:13:39;99733.06;;;2.53;96.87
77583;BME280;66726;52.388;9.986;2024-02-26T08:16:07;99738.19;;;2.54;97.18
77583;BME280;66726;52.388;9.986;2024-02-26T08:18:36;99740.56;;;2.58;97.33
77583;BME280;66726;52.388;9.986;2024-02-26T08:21:05;99743.91;;;2.60;97.85
77583;BME280;66726;52.388;9.986;2024-02-26T08:23:33;99746.28;;;2.63;96.98
77583;BME280;66726;52.388;9.986;2024-02-26T08:26:01;99747.81;;;2.65;97.20
77583;BME280;66726;52.388;9.986;2024-02-26T08:28:31;99753.00;;;2.67;96.75
77583;BME280;66726;52.388;9.986;2024-02-26T08:30:59;99747.56;;;2.68;97.22
77583;BME280;66726;52.388;9.986;2024-02-26T08:33:27;99742.84;;;2.72;97.04
77583;BME280;66726;52.388;9.986;2024-02-26T08:35:57;99742.56;;;2.75;96.23
77583;BME280;66726;52.388;9.986;2024-02-26T08:38:26;99738.84;;;2.77;96.23
77583;BME280;66726;52.388;9.986;2024-02-26T08:40:54;99739.41;;;2.81;96.39
77583;BME280;66726;52.388;9.986;2024-02-26T08:43:22;99737.28;;;2.84;96.40
77583;BME280;66726;52.388;9.986;2024-02-26T08:45:50;99740.66;;;2.86;96.51
77583;BME280;66726;52.388;9.986;2024-02-26T08:48:18;99746.63;;;2.88;95.83
77583;BME280;66726;52.388;9.986;2024-02-26T08:50:47;99741.91;;;2.92;96.48
77583;BME280;66726;52.388;9.986;2024-02-26T08:53:16;99745.28;;;2.94;95.64
77583;BME280;66726;52.388;9.986;2024-02-26T08:55:57;99745.97;;;2.96;94.96
77583;BME280;66726;52.388;9.986;2024-02-26T08:58:25;99745.69;;;2.99;95.28
77583;BME280;66726;52.388;9.986;2024-02-26T09:00:54;99747.94;;;3.03;95.25
77583;BME280;66726;52.388;9.986;2024-02-26T09:03:23;99751.25;;;3.05;94.87
77583;BME280;66726;52.388;9.986;2024-02-26T09:05:53;99752.81;;;3.08;95.15
77583;BME280;66726;52.388;9.986;2024-02-26T09:08:22;99760.75;;;3.08;94.98
77583;BME280;66726;52.388;9.986;2024-02-26T09:10:50;99765.75;;;3.11;95.22
77583;BME280;66726;52.388;9.986;2024-02-26T09:13:18;99760.03;;;3.16;95.46
77583;BME280;66726;52.388;9.986;2024-02-26T09:15:46;99761.59;;;3.18;95.44
77583;BME280;66726;52.388;9.986;2024-02-26T09:18:15;99771.63;;;3.24;94.55
77583;BME280;66726;52.388;9.986;2024-02-26T09:20:43;99768.81;;;3.26;95.23
77583;BME280;66726;52.388;9.986;2024-02-26T09:23:11;99761.44;;;3.29;95.26
77583;BME280;66726;52.388;9.986;2024-02-26T09:25:41;99758.53;;;3.32;94.84
77583;BME280;66726;52.388;9.986;2024-02-26T09:28:09;99754.63;;;3.36;94.02
77583;BME280;66726;52.388;9.986;2024-02-26T09:30:37;99767.47;;;3.41;94.01
77583;BME280;66726;52.388;9.986;2024-02-26T09:33:05;99765.50;;;3.43;94.33
77583;BME280;66726;52.388;9.986;2024-02-26T09:35:34;99759.13;;;3.45;93.96
77583;BME280;66726;52.388;9.986;2024-02-26T09:38:02;99768.41;;;3.49;94.21
77583;BME280;66726;52.388;9.986;2024-02-26T09:40:31;99769.13;;;3.51;94.42
77583;BME280;66726;52.388;9.986;2024-02-26T09:43:01;99766.88;;;3.56;94.54
77583;BME280;66726;52.388;9.986;2024-02-26T09:45:32;99764.81;;;3.60;94.05
77583;BME280;66726;52.388;9.986;2024-02-26T09:48:04;99770.66;;;3.64;94.07
77583;BME280;66726;52.388;9.986;2024-02-26T09:50:36;99776.66;;;3.66;94.00
77583;BME280;66726;52.388;9.986;2024-02-26T09:53:06;99778.06;;;3.70;93.97
77583;BME280;66726;52.388;9.986;2024-02-26T09:55:37;99788.91;;;3.76;92.03
77583;BME280;66726;52.388;9.986;2024-02-26T09:58:07;99787.78;;;3.79;92.43
77583;BME280;66726;52.388;9.986;2024-02-26T10:00:37;99783.91;;;3.83;92.08
77583;BME280;66726;52.388;9.986;2024-02-26T10:03:13;99789.59;;;3.88;93.04
77583;BME280;66726;52.388;9.986;2024-02-26T10:05:44;99796.00;;;3.95;91.95
77583;BME280;66726;52.388;9.986;2024-02-26T10:08:14;99792.22;;;3.97;91.66
77583;BME280;66726;52.388;9.986;2024-02-26T10:10:45;99797.38;;;4.08;91.51
77583;BME280;66726;52.388;9.986;2024-02-26T10:13:15;99796.53;;;4.08;91.60
77583;BME280;66726;52.388;9.986;2024-02-26T10:15:43;99801.69;;;4.09;91.85
77583;BME280;66726;52.388;9.986;2024-02-26T10:18:11;99796.00;;;4.14;91.72
77583;BME280;66726;52.388;9.986;2024-02-26T10:20:39;99793.31;;;4.24;90.95
77583;BME280;66726;52.388;9.986;2024-02-26T10:23:07;99796.63;;;4.26;90.68
77583;BME280;66726;52.388;9.986;2024-02-26T10:25:36;99802.50;;;4.29;90.88
77583;BME280;66726;52.388;9.986;2024-02-26T10:28:04;99802.19;;;4.32;90.02
77583;BME280;66726;52.388;9.986;2024-02-26T10:30:37;99796.06;;;4.41;90.89
77583;BME280;66726;52.388;9.986;2024-02-26T10:33:07;99809.84;;;4.45;90.55
77583;BME280;66726;52.388;9.986;2024-02-26T10:35:36;99797.16;;;4.48;90.14
77583;BME280;66726;52.388;9.986;2024-02-26T10:38:07;99803.25;;;4.58;89.64
77583;BME280;66726;52.388;9.986;2024-02-26T10:40:35;99812.56;;;4.63;89.88
77583;BME280;66726;52.388;9.986;2024-02-26T10:43:04;99805.03;;;4.68;88.99
77583;BME280;66726;52.388;9.986;2024-02-26T10:45:34;99814.38;;;4.72;89.21
77583;BME280;66726;52.388;9.986;2024-02-26T10:48:09;99816.56;;;4.76;88.91
77583;BME280;66726;52.388;9.986;2024-02-26T10:50:39;99818.25;;;4.77;89.16
77583;BME280;66726;52.388;9.986;2024-02-26T10:53:13;99831.19;;;4.80;89.53
77583;BME280;66726;52.388;9.986;2024-02-26T10:55:48;99830.78;;;4.85;88.58
77583;BME280;66726;52.388;9.986;2024-02-26T10:58:18;99835.09;;;4.86;89.17
77583;BME280;66726;52.388;9.986;2024-02-26T11:00:50;99828.25;;;4.93;88.36
77583;BME280;66726;52.388;9.986;2024-02-26T11:03:19;99832.13;;;4.98;87.78
77583;BME280;66726;52.388;9.986;2024-02-26T11:05:49;99836.56;;;4.98;88.23
77583;BME280;66726;52.388;9.986;2024-02-26T11:08:19;99835.91;;;4.96;88.66
77583;BME280;66726;52.388;9.986;2024-02-26T11:10:53;99841.59;;;5.01;88.02
77583;BME280;66726;52.388;9.986;2024-02-26T11:13:23;99835.69;;;5.07;87.31
77583;BME280;66726;52.388;9.986;2024-02-26T11:15:56;99840.56;;;5.11;88.56
77583;BME280;66726;52.388;9.986;2024-02-26T11:18:27;99834.81;;;5.16;87.56
77583;BME280;66726;52.388;9.986;2024-02-26T11:20:56;99835.66;;;5.17;87.45
77583;BME280;66726;52.388;9.986;2024-02-26T11:23:24;99843.44;;;5.18;87.41
77583;BME280;66726;52.388;9.986;2024-02-26T11:25:55;99837.00;;;5.21;88.22
77583;BME280;66726;52.388;9.986;2024-02-26T11:28:28;99837.53;;;5.24;88.01
77583;BME280;66726;52.388;9.986;2024-02-26T11:31:00;99836.28;;;5.28;87.80
77583;BME280;66726;52.388;9.986;2024-02-26T11:33:31;99833.63;;;5.28;88.46
77583;BME280;66726;52.388;9.986;2024-02-26T11:36:00;99828.31;;;5.28;89.12
77583;BME280;66726;52.388;9.986;2024-02-26T11:38:29;99823.72;;;5.30;88.85
77583;BME280;66726;52.388;9.986;2024-02-26T11:40:58;99824.09;;;5.35;88.76
77583;BME280;66726;52.388;9.986;2024-02-26T11:43:51;99827.44;;;5.37;88.89
77583;BME280;66726;52.388;9.986;2024-02-26T11:46:29;99827.38;;;5.47;88.59
77583;BME280;66726;52.388;9.986;2024-02-26T11:49:02;99834.88;;;5.51;88.45
77583;BME280;66726;52.388;9.986;2024-02-26T11:51:34;99832.75;;;5.55;88.04
77583;BME280;66726;52.388;9.986;2024-02-26T11:54:03;99834.66;;;5.62;88.55
77583;BME280;66726;52.388;9.986;2024-02-26T11:56:34;99833.38;;;5.67;88.08
77583;BME280;66726;52.388;9.986;2024-02-26T11:59:10;99841.75;;;5.72;87.97
77583;BME280;66726;52.388;9.986;2024-02-26T12:01:46;99847.06;;;5.72;88.22
77583;BME280;66726;52.388;9.986;2024-02-26T12:04:21;99849.53;;;5.73;88.98
77583;BME280;66726;52.388;9.986;2024-02-26T12:06:55;99844.63;;;5.78;87.87
77583;BME280;66726;52.388;9.986;2024-02-26T12:09:36;99844.16;;;5.83;86.93
77583;BME280;66726;52.388;9.986;2024-02-26T12:12:06;99845.94;;;5.92;87.27
77583;BME280;66726;52.388;9.986;2024-02-26T12:14:38;99847.28;;;5.96;86.20
77583;BME280;66726;52.388;9.986;2024-02-26T12:17:19;99850.94;;;5.95;87.77
77583;BME280;66726;52.388;9.986;2024-02-26T12:19:47;99857.78;;;5.97;87.70
77583;BME280;66726;52.388;9.986;2024-02-26T12:22:16;99851.84;;;6.03;87.41
77583;BME280;66726;52.388;9.986;2024-02-26T12:24:44;99855.72;;;6.09;86.71
77583;BME280;66726;52.388;9.986;2024-02-26T12:27:13;99866.88;;;6.13;87.19
77583;BME280;66726;52.388;9.986;2024-02-26T12:29:42;99867.03;;;6.11;87.99
77583;BME280;66726;52.388;9.986;2024-02-26T12:32:12;99864.06;;;6.14;88.14
77583;BME280;66726;52.388;9.986;2024-02-26T12:34:41;99865.13;;;6.21;87.49
77583;BME280;66726;52.388;9.986;2024-02-26T12:37:09;99866.16;;;6.28;87.27
77583;BME280;66726;52.388;9.986;2024-02-26T12:39:38;99868.91;;;6.36;86.87
77583;BME280;66726;52.388;9.986;2024-02-26T12:42:07;99866.59;;;6.41;87.12
77583;BME280;66726;52.388;9.986;2024-02-26T12:44:35;99871.28;;;6.47;86.96
77583;BME280;66726;52.388;9.986;2024-02-26T12:47:04;99867.34;;;6.51;86.54
77583;BME280;66726;52.388;9.986;2024-02-26T12:49:34;99871.75;;;6.60;86.29
77583;BME280;66726;52.388;9.986;2024-02-26T12:52:03;99871.78;;;6.69;85.07
77583;BME280;66726;52.388;9.986;2024-02-26T12:54:33;99877.63;;;6.72;84.71
77583;BME280;66726;52.388;9.986;2024-02-26T12:57:04;99876.97;;;6.78;84.92
77583;BME280;66726;52.388;9.986;2024-02-26T12:59:34;99867.56;;;6.84;84.41
77583;BME280;66726;52.388;9.986;2024-02-26T13:02:04;99878.22;;;6.92;82.29
77583;BME280;66726;52.388;9.986;2024-02-26T13:04:36;99880.28;;;6.98;81.53
77583;BME280;66726;52.388;9.986;2024-02-26T13:07:04;99879.97;;;7.01;81.67
77583;BME280;66726;52.388;9.986;2024-02-26T13:09:34;99882.63;;;7.01;82.67
77583;BME280;66726;52.388;9.986;2024-02-26T13:12:05;99899.25;;;7.03;82.37
77583;BME280;66726;52.388;9.986;2024-02-26T13:14:34;99894.09;;;7.01;82.86
77583;BME280;66726;52.388;9.986;2024-02-26T13:17:04;99897.28;;;7.05;81.63
77583;BME280;66726;52.388;9.986;2024-02-26T13:19:32;99893.28;;;7.09;81.59